sensor_id;sensor_type;location;lat;lon;timestamp;P1;durP1;ratioP1;P2;durP2;ratioP2
51266;SDS011;37338;47.426;19.204;2023-03-21T00:01:52;8.00;;;4.63;;
51266;SDS011;37338;47.426;19.204;2023-03-21T00:44:02;10.20;;;4.73;;
51266;SDS011;37338;47.426;19.204;2023-03-21T00:46:28;14.03;;;5.13;;
51266;SDS011;37338;47.426;19.204;2023-03-21T00:48:53;7.33;;;5.13;;
51266;SDS011;37338;47.426;19.204;2023-03-21T00:51:20;7.53;;;5.10;;
51266;SDS011;37338;47.426;19.204;2023-03-21T01:00:33;9.33;;;4.77;;
51266;SDS011;37338;47.426;19.204;2023-03-21T01:03:01;6.30;;;4.30;;
51266;SDS011;37338;47.426;19.204;2023-03-21T01:05:31;5.90;;;4.67;;
51266;SDS011;37338;47.426;19.204;2023-03-21T01:08:17;7.43;;;5.00;;
51266;SDS011;37338;47.426;19.204;2023-03-21T01:10:44;7.77;;;5.33;;
51266;SDS011;37338;47.426;19.204;2023-03-21T01:13:11;8.27;;;4.77;;
51266;SDS011;37338;47.426;19.204;2023-03-21T01:15:44;6.63;;;4.63;;
51266;SDS011;37338;47.426;19.204;2023-03-21T01:18:12;7.87;;;5.27;;
51266;SDS011;37338;47.426;19.204;2023-03-21T01:20:42;6.70;;;5.00;;
51266;SDS011;37338;47.426;19.204;2023-03-21T01:23:08;11.13;;;4.97;;
51266;SDS011;37338;47.426;19.204;2023-03-21T01:25:34;8.77;;;4.70;;
51266;SDS011;37338;47.426;19.204;2023-03-21T01:27:59;6.33;;;4.10;;
51266;SDS011;37338;47.426;19.204;2023-03-21T01:30:24;6.47;;;4.90;;
51266;SDS011;37338;47.426;19.204;2023-03-21T01:32:50;7.87;;;4.73;;
51266;SDS011;37338;47.426;19.204;2023-03-21T01:35:22;7.40;;;4.47;;
51266;SDS011;37338;47.426;19.204;2023-03-21T01:37:47;7.90;;;4.70;;
51266;SDS011;37338;47.426;19.204;2023-03-21T01:40:18;7.50;;;5.00;;
51266;SDS011;37338;47.426;19.204;2023-03-21T01:42:48;8.27;;;5.07;;
51266;SDS011;37338;47.426;19.204;2023-03-21T01:48:16;5.90;;;4.40;;
51266;SDS011;37338;47.426;19.204;2023-03-21T01:50:42;7.57;;;5.00;;
51266;SDS011;37338;47.426;19.204;2023-03-21T01:53:08;6.87;;;4.63;;
51266;SDS011;37338;47.426;19.204;2023-03-21T01:55:33;6.90;;;5.30;;
51266;SDS011;37338;47.426;19.204;2023-03-21T01:58:00;7.33;;;4.37;;
51266;SDS011;37338;47.426;19.204;2023-03-21T02:00:28;6.20;;;4.77;;
51266;SDS011;37338;47.426;19.204;2023-03-21T02:02:56;8.73;;;4.53;;
51266;SDS011;37338;47.426;19.204;2023-03-21T02:05:25;6.70;;;4.53;;
51266;SDS011;37338;47.426;19.204;2023-03-21T02:08:13;6.93;;;5.23;;
51266;SDS011;37338;47.426;19.204;2023-03-21T02:10:39;7.83;;;4.67;;
51266;SDS011;37338;47.426;19.204;2023-03-21T02:13:07;5.87;;;4.83;;
51266;SDS011;37338;47.426;19.204;2023-03-21T02:15:36;9.77;;;4.67;;
51266;SDS011;37338;47.426;19.204;2023-03-21T02:18:06;7.03;;;5.83;;
51266;SDS011;37338;47.426;19.204;2023-03-21T02:31:59;9.50;;;5.83;;
51266;SDS011;37338;47.426;19.204;2023-03-21T02:37:19;7.77;;;5.03;;
51266;SDS011;37338;47.426;19.204;2023-03-21T02:42:24;10.53;;;5.27;;
51266;SDS011;37338;47.426;19.204;2023-03-21T02:48:11;7.80;;;4.67;;
51266;SDS011;37338;47.426;19.204;2023-03-21T02:50:45;7.95;;;5.22;;
51266;SDS011;37338;47.426;19.204;2023-03-21T02:53:15;6.43;;;5.43;;
51266;SDS011;37338;47.426;19.204;2023-03-21T02:55:42;6.60;;;5.33;;
51266;SDS011;37338;47.426;19.204;2023-03-21T02:58:12;9.00;;;5.60;;
51266;SDS011;37338;47.426;19.204;2023-03-21T03:00:40;8.27;;;5.00;;
51266;SDS011;37338;47.426;19.204;2023-03-21T03:03:08;11.13;;;5.53;;
51266;SDS011;37338;47.426;19.204;2023-03-21T03:05:34;9.43;;;5.87;;
51266;SDS011;37338;47.426;19.204;2023-03-21T03:21:29;6.77;;;4.30;;
51266;SDS011;37338;47.426;19.204;2023-03-21T03:23:57;4.43;;;3.90;;
51266;SDS011;37338;47.426;19.204;2023-03-21T03:26:27;6.43;;;4.00;;
51266;SDS011;37338;47.426;19.204;2023-03-21T03:28:59;7.18;;;4.00;;
51266;SDS011;37338;47.426;19.204;2023-03-21T03:31:28;5.00;;;4.00;;
51266;SDS011;37338;47.426;19.204;2023-03-21T03:33:58;4.83;;;4.17;;
51266;SDS011;37338;47.426;19.204;2023-03-21T03:36:28;5.30;;;4.40;;
51266;SDS011;37338;47.426;19.204;2023-03-21T03:38:58;3.90;;;3.07;;
51266;SDS011;37338;47.426;19.204;2023-03-21T03:41:25;6.37;;;4.20;;
51266;SDS011;37338;47.426;19.204;2023-03-21T03:43:53;6.73;;;4.07;;
51266;SDS011;37338;47.426;19.204;2023-03-21T03:46:31;5.17;;;4.07;;
51266;SDS011;37338;47.426;19.204;2023-03-21T03:49:01;7.60;;;3.93;;
51266;SDS011;37338;47.426;19.204;2023-03-21T03:51:35;5.30;;;3.90;;
51266;SDS011;37338;47.426;19.204;2023-03-21T03:54:13;7.60;;;4.10;;
51266;SDS011;37338;47.426;19.204;2023-03-21T03:56:42;5.17;;;3.47;;
51266;SDS011;37338;47.426;19.204;2023-03-21T03:59:08;6.00;;;3.73;;
51266;SDS011;37338;47.426;19.204;2023-03-21T04:01:33;5.90;;;3.53;;
51266;SDS011;37338;47.426;19.204;2023-03-21T04:03:59;5.70;;;3.70;;
51266;SDS011;37338;47.426;19.204;2023-03-21T04:06:25;5.60;;;3.47;;
51266;SDS011;37338;47.426;19.204;2023-03-21T04:08:52;4.00;;;3.57;;
51266;SDS011;37338;47.426;19.204;2023-03-21T04:11:20;4.30;;;3.50;;
51266;SDS011;37338;47.426;19.204;2023-03-21T04:13:46;5.60;;;3.60;;
51266;SDS011;37338;47.426;19.204;2023-03-21T04:16:11;6.37;;;3.83;;
51266;SDS011;37338;47.426;19.204;2023-03-21T04:18:38;4.13;;;3.10;;
51266;SDS011;37338;47.426;19.204;2023-03-21T04:21:11;4.30;;;3.37;;
51266;SDS011;37338;47.426;19.204;2023-03-21T04:23:37;6.65;;;3.50;;
51266;SDS011;37338;47.426;19.204;2023-03-21T04:26:04;4.47;;;3.27;;
51266;SDS011;37338;47.426;19.204;2023-03-21T04:28:30;4.73;;;3.53;;
51266;SDS011;37338;47.426;19.204;2023-03-21T04:30:56;3.90;;;3.30;;
51266;SDS011;37338;47.426;19.204;2023-03-21T04:33:22;3.40;;;2.77;;
51266;SDS011;37338;47.426;19.204;2023-03-21T04:35:50;5.90;;;3.30;;
51266;SDS011;37338;47.426;19.204;2023-03-21T04:38:20;4.83;;;3.17;;
51266;SDS011;37338;47.426;19.204;2023-03-21T04:40:49;4.10;;;2.97;;
51266;SDS011;37338;47.426;19.204;2023-03-21T04:43:14;5.43;;;2.63;;
51266;SDS011;37338;47.426;19.204;2023-03-21T04:45:40;4.10;;;3.10;;
51266;SDS011;37338;47.426;19.204;2023-03-21T04:48:05;3.17;;;2.87;;
51266;SDS011;37338;47.426;19.204;2023-03-21T04:50:31;3.27;;;2.50;;
51266;SDS011;37338;47.426;19.204;2023-03-21T04:52:56;4.17;;;3.00;;
51266;SDS011;37338;47.426;19.204;2023-03-21T04:55:22;3.57;;;3.03;;
51266;SDS011;37338;47.426;19.204;2023-03-21T04:57:49;3.63;;;2.90;;
51266;SDS011;37338;47.426;19.204;2023-03-21T05:00:14;3.90;;;2.97;;
51266;SDS011;37338;47.426;19.204;2023-03-21T05:02:40;3.73;;;2.50;;
51266;SDS011;37338;47.426;19.204;2023-03-21T05:05:06;4.50;;;3.47;;
51266;SDS011;37338;47.426;19.204;2023-03-21T05:07:35;3.63;;;3.00;;
51266;SDS011;37338;47.426;19.204;2023-03-21T05:10:01;3.83;;;3.40;;
51266;SDS011;37338;47.426;19.204;2023-03-21T05:12:27;4.87;;;3.43;;
51266;SDS011;37338;47.426;19.204;2023-03-21T05:14:52;4.67;;;3.30;;
51266;SDS011;37338;47.426;19.204;2023-03-21T05:17:17;6.70;;;3.50;;
51266;SDS011;37338;47.426;19.204;2023-03-21T05:19:47;4.17;;;3.33;;
51266;SDS011;37338;47.426;19.204;2023-03-21T05:22:14;3.70;;;3.13;;
51266;SDS011;37338;47.426;19.204;2023-03-21T05:24:43;5.07;;;3.20;;
51266;SDS011;37338;47.426;19.204;2023-03-21T05:27:14;5.47;;;3.97;;
51266;SDS011;37338;47.426;19.204;2023-03-21T05:30:00;5.07;;;3.33;;
51266;SDS011;37338;47.426;19.204;2023-03-21T05:32:26;6.73;;;3.83;;
51266;SDS011;37338;47.426;19.204;2023-03-21T05:34:51;4.07;;;3.17;;
51266;SDS011;37338;47.426;19.204;2023-03-21T05:37:17;5.40;;;3.93;;
51266;SDS011;37338;47.426;19.204;2023-03-21T05:39:42;5.47;;;3.47;;
51266;SDS011;37338;47.426;19.204;2023-03-21T05:42:07;4.27;;;3.17;;
51266;SDS011;37338;47.426;19.204;2023-03-21T05:47:54;5.30;;;3.23;;
51266;SDS011;37338;47.426;19.204;2023-03-21T05:50:20;5.50;;;3.47;;
51266;SDS011;37338;47.426;19.204;2023-03-21T05:52:45;6.30;;;3.63;;
51266;SDS011;37338;47.426;19.204;2023-03-21T05:55:11;3.40;;;3.10;;
51266;SDS011;37338;47.426;19.204;2023-03-21T05:57:36;4.00;;;3.57;;
51266;SDS011;37338;47.426;19.204;2023-03-21T06:00:05;4.70;;;3.93;;
51266;SDS011;37338;47.426;19.204;2023-03-21T06:02:32;4.07;;;3.67;;
51266;SDS011;37338;47.426;19.204;2023-03-21T06:04:57;4.77;;;3.53;;
51266;SDS011;37338;47.426;19.204;2023-03-21T06:07:22;4.25;;;3.90;;
51266;SDS011;37338;47.426;19.204;2023-03-21T06:13:10;5.43;;;4.43;;
51266;SDS011;37338;47.426;19.204;2023-03-21T06:15:35;6.53;;;4.63;;
51266;SDS011;37338;47.426;19.204;2023-03-21T06:24:44;4.67;;;3.63;;
51266;SDS011;37338;47.426;19.204;2023-03-21T06:27:09;4.93;;;4.20;;
51266;SDS011;37338;47.426;19.204;2023-03-21T06:32:56;5.27;;;3.77;;
51266;SDS011;37338;47.426;19.204;2023-03-21T06:38:44;4.03;;;3.40;;
51266;SDS011;37338;47.426;19.204;2023-03-21T06:41:10;6.57;;;3.80;;
51266;SDS011;37338;47.426;19.204;2023-03-21T06:43:36;4.33;;;3.53;;
51266;SDS011;37338;47.426;19.204;2023-03-21T06:46:01;6.57;;;3.90;;
51266;SDS011;37338;47.426;19.204;2023-03-21T06:48:27;4.93;;;3.93;;
51266;SDS011;37338;47.426;19.204;2023-03-21T06:50:53;5.10;;;3.93;;
51266;SDS011;37338;47.426;19.204;2023-03-21T06:53:20;9.33;;;4.27;;
51266;SDS011;37338;47.426;19.204;2023-03-21T06:55:48;6.63;;;4.13;;
51266;SDS011;37338;47.426;19.204;2023-03-21T06:58:17;4.63;;;3.70;;
51266;SDS011;37338;47.426;19.204;2023-03-21T07:00:43;5.90;;;3.00;;
51266;SDS011;37338;47.426;19.204;2023-03-21T07:03:09;5.87;;;4.00;;
51266;SDS011;37338;47.426;19.204;2023-03-21T07:05:35;4.43;;;3.55;;
51266;SDS011;37338;47.426;19.204;2023-03-21T07:08:01;3.97;;;3.47;;
51266;SDS011;37338;47.426;19.204;2023-03-21T07:10:27;4.77;;;4.33;;
51266;SDS011;37338;47.426;19.204;2023-03-21T07:12:52;4.40;;;4.00;;
51266;SDS011;37338;47.426;19.204;2023-03-21T07:15:18;5.53;;;4.10;;
51266;SDS011;37338;47.426;19.204;2023-03-21T07:17:43;4.82;;;3.80;;
51266;SDS011;37338;47.426;19.204;2023-03-21T07:20:09;6.68;;;4.60;;
51266;SDS011;37338;47.426;19.204;2023-03-21T07:22:36;6.35;;;4.70;;
51266;SDS011;37338;47.426;19.204;2023-03-21T07:25:02;5.85;;;3.83;;
51266;SDS011;37338;47.426;19.204;2023-03-21T07:27:28;4.32;;;3.58;;
51266;SDS011;37338;47.426;19.204;2023-03-21T07:29:54;4.88;;;4.05;;
51266;SDS011;37338;47.426;19.204;2023-03-21T07:32:19;4.95;;;4.10;;
51266;SDS011;37338;47.426;19.204;2023-03-21T07:34:45;4.93;;;4.40;;
51266;SDS011;37338;47.426;19.204;2023-03-21T07:37:10;5.30;;;4.53;;
51266;SDS011;37338;47.426;19.204;2023-03-21T07:39:35;4.35;;;3.95;;
51266;SDS011;37338;47.426;19.204;2023-03-21T07:42:01;6.28;;;4.45;;
51266;SDS011;37338;47.426;19.204;2023-03-21T07:44:26;5.45;;;4.70;;
51266;SDS011;37338;47.426;19.204;2023-03-21T07:46:53;4.38;;;3.58;;
51266;SDS011;37338;47.426;19.204;2023-03-21T07:49:20;6.10;;;3.55;;
51266;SDS011;37338;47.426;19.204;2023-03-21T07:51:45;4.13;;;3.67;;
51266;SDS011;37338;47.426;19.204;2023-03-21T07:54:11;3.72;;;3.13;;
51266;SDS011;37338;47.426;19.204;2023-03-21T07:56:36;5.30;;;4.43;;
51266;SDS011;37338;47.426;19.204;2023-03-21T07:59:01;4.45;;;4.05;;
51266;SDS011;37338;47.426;19.204;2023-03-21T08:01:29;4.80;;;3.28;;
51266;SDS011;37338;47.426;19.204;2023-03-21T08:03:55;4.00;;;3.67;;
51266;SDS011;37338;47.426;19.204;2023-03-21T08:06:20;3.35;;;2.97;;
51266;SDS011;37338;47.426;19.204;2023-03-21T08:08:45;3.40;;;2.88;;
51266;SDS011;37338;47.426;19.204;2023-03-21T08:11:11;3.15;;;2.85;;
51266;SDS011;37338;47.426;19.204;2023-03-21T08:13:37;3.50;;;3.20;;
51266;SDS011;37338;47.426;19.204;2023-03-21T08:16:02;4.97;;;3.58;;
51266;SDS011;37338;47.426;19.204;2023-03-21T08:18:28;3.58;;;2.88;;
51266;SDS011;37338;47.426;19.204;2023-03-21T08:20:54;8.98;;;2.70;;
51266;SDS011;37338;47.426;19.204;2023-03-21T08:23:20;3.97;;;2.85;;
51266;SDS011;37338;47.426;19.204;2023-03-21T08:25:49;3.25;;;2.42;;
51266;SDS011;37338;47.426;19.204;2023-03-21T08:28:16;2.55;;;1.83;;
51266;SDS011;37338;47.426;19.204;2023-03-21T08:30:42;3.22;;;2.53;;
51266;SDS011;37338;47.426;19.204;2023-03-21T08:33:07;3.17;;;2.15;;
51266;SDS011;37338;47.426;19.204;2023-03-21T08:38:54;3.55;;;3.25;;
51266;SDS011;37338;47.426;19.204;2023-03-21T08:41:28;4.35;;;3.95;;
51266;SDS011;37338;47.426;19.204;2023-03-21T08:43:53;5.85;;;2.95;;
51266;SDS011;37338;47.426;19.204;2023-03-21T08:46:19;3.85;;;3.55;;
51266;SDS011;37338;47.426;19.204;2023-03-21T08:48:59;5.00;;;3.45;;
51266;SDS011;37338;47.426;19.204;2023-03-21T08:51:25;3.20;;;2.90;;
51266;SDS011;37338;47.426;19.204;2023-03-21T08:53:51;2.67;;;2.47;;
51266;SDS011;37338;47.426;19.204;2023-03-21T08:56:16;4.53;;;3.03;;
51266;SDS011;37338;47.426;19.204;2023-03-21T08:58:42;4.45;;;3.15;;
51266;SDS011;37338;47.426;19.204;2023-03-21T09:01:08;2.90;;;2.15;;
51266;SDS011;37338;47.426;19.204;2023-03-21T09:03:35;2.42;;;2.13;;
51266;SDS011;37338;47.426;19.204;2023-03-21T09:06:02;4.43;;;1.77;;
51266;SDS011;37338;47.426;19.204;2023-03-21T09:08:28;2.17;;;1.98;;
51266;SDS011;37338;47.426;19.204;2023-03-21T09:10:53;2.63;;;2.13;;
51266;SDS011;37338;47.426;19.204;2023-03-21T09:13:19;1.90;;;1.63;;
51266;SDS011;37338;47.426;19.204;2023-03-21T09:15:45;1.73;;;1.63;;
51266;SDS011;37338;47.426;19.204;2023-03-21T09:18:10;2.00;;;1.80;;
51266;SDS011;37338;47.426;19.204;2023-03-21T09:20:42;1.80;;;1.70;;
51266;SDS011;37338;47.426;19.204;2023-03-21T09:23:09;1.75;;;1.60;;
51266;SDS011;37338;47.426;19.204;2023-03-21T09:25:36;2.85;;;2.08;;
51266;SDS011;37338;47.426;19.204;2023-03-21T09:28:02;2.38;;;2.17;;
51266;SDS011;37338;47.426;19.204;2023-03-21T09:30:29;4.20;;;2.05;;
51266;SDS011;37338;47.426;19.204;2023-03-21T09:33:00;1.95;;;1.75;;
51266;SDS011;37338;47.426;19.204;2023-03-21T09:35:27;1.77;;;1.67;;
51266;SDS011;37338;47.426;19.204;2023-03-21T09:37:53;3.72;;;1.70;;
51266;SDS011;37338;47.426;19.204;2023-03-21T09:43:09;1.92;;;1.50;;
51266;SDS011;37338;47.426;19.204;2023-03-21T09:45:47;2.33;;;2.10;;
51266;SDS011;37338;47.426;19.204;2023-03-21T09:48:19;2.13;;;1.90;;
51266;SDS011;37338;47.426;19.204;2023-03-21T09:51:05;2.45;;;2.25;;
51266;SDS011;37338;47.426;19.204;2023-03-21T09:53:35;1.60;;;1.50;;
51266;SDS011;37338;47.426;19.204;2023-03-21T09:56:03;1.60;;;1.50;;
51266;SDS011;37338;47.426;19.204;2023-03-21T10:00:58;1.50;;;1.40;;
51266;SDS011;37338;47.426;19.204;2023-03-21T10:03:34;3.85;;;2.25;;
51266;SDS011;37338;47.426;19.204;2023-03-21T10:06:04;1.50;;;1.40;;
51266;SDS011;37338;47.426;19.204;2023-03-21T10:08:38;1.30;;;1.20;;
51266;SDS011;37338;47.426;19.204;2023-03-21T10:11:08;1.52;;;1.42;;
51266;SDS011;37338;47.426;19.204;2023-03-21T10:16:35;2.80;;;1.60;;
51266;SDS011;37338;47.426;19.204;2023-03-21T10:19:13;3.75;;;1.42;;
51266;SDS011;37338;47.426;19.204;2023-03-21T10:21:40;1.60;;;1.50;;
51266;SDS011;37338;47.426;19.204;2023-03-21T10:24:09;1.35;;;1.25;;
51266;SDS011;37338;47.426;19.204;2023-03-21T10:26:36;1.40;;;1.30;;
51266;SDS011;37338;47.426;19.204;2023-03-21T10:29:02;1.50;;;1.40;;
51266;SDS011;37338;47.426;19.204;2023-03-21T10:31:27;1.60;;;1.45;;
51266;SDS011;37338;47.426;19.204;2023-03-21T10:33:55;1.42;;;1.33;;
51266;SDS011;37338;47.426;19.204;2023-03-21T10:36:23;3.60;;;1.35;;
51266;SDS011;37338;47.426;19.204;2023-03-21T10:38:55;2.65;;;1.65;;
51266;SDS011;37338;47.426;19.204;2023-03-21T10:49:20;1.30;;;1.20;;
51266;SDS011;37338;47.426;19.204;2023-03-21T10:51:46;1.50;;;1.40;;
51266;SDS011;37338;47.426;19.204;2023-03-21T10:54:15;2.17;;;1.63;;
51266;SDS011;37338;47.426;19.204;2023-03-21T10:57:19;2.10;;;1.30;;
51266;SDS011;37338;47.426;19.204;2023-03-21T11:02:32;1.75;;;1.65;;
51266;SDS011;37338;47.426;19.204;2023-03-21T11:05:07;1.60;;;1.50;;
51266;SDS011;37338;47.426;19.204;2023-03-21T11:07:55;3.70;;;1.95;;
51266;SDS011;37338;47.426;19.204;2023-03-21T11:12:54;1.50;;;1.40;;
51266;SDS011;37338;47.426;19.204;2023-03-21T11:17:52;1.30;;;1.20;;
51266;SDS011;37338;47.426;19.204;2023-03-21T11:20:18;3.13;;;1.65;;
51266;SDS011;37338;47.426;19.204;2023-03-21T11:22:44;1.50;;;1.40;;
51266;SDS011;37338;47.426;19.204;2023-03-21T11:25:20;0.95;;;0.95;;
51266;SDS011;37338;47.426;19.204;2023-03-21T11:27:51;1.20;;;1.10;;
51266;SDS011;37338;47.426;19.204;2023-03-21T11:30:25;1.98;;;1.65;;
51266;SDS011;37338;47.426;19.204;2023-03-21T11:35:36;1.80;;;1.55;;
51266;SDS011;37338;47.426;19.204;2023-03-21T11:38:03;1.92;;;1.50;;
51266;SDS011;37338;47.426;19.204;2023-03-21T11:40:32;1.45;;;1.35;;
51266;SDS011;37338;47.426;19.204;2023-03-21T11:43:00;1.50;;;1.40;;
51266;SDS011;37338;47.426;19.204;2023-03-21T11:48:25;1.70;;;1.60;;
51266;SDS011;37338;47.426;19.204;2023-03-21T11:50:51;2.03;;;1.80;;
51266;SDS011;37338;47.426;19.204;2023-03-21T11:53:31;3.03;;;1.48;;
51266;SDS011;37338;47.426;19.204;2023-03-21T11:58:36;1.50;;;1.17;;
51266;SDS011;37338;47.426;19.204;2023-03-21T12:01:15;4.53;;;1.27;;
51266;SDS011;37338;47.426;19.204;2023-03-21T12:10:08;3.08;;;1.92;;
51266;SDS011;37338;47.426;19.204;2023-03-21T12:12:41;2.40;;;1.15;;
51266;SDS011;37338;47.426;19.204;2023-03-21T12:45:49;2.63;;;1.23;;
51266;SDS011;37338;47.426;19.204;2023-03-21T12:48:26;3.03;;;1.23;;
51266;SDS011;37338;47.426;19.204;2023-03-21T12:50:57;1.67;;;1.08;;
51266;SDS011;37338;47.426;19.204;2023-03-21T12:53:27;1.27;;;0.98;;
51266;SDS011;37338;47.426;19.204;2023-03-21T12:56:24;1.15;;;1.02;;
51266;SDS011;37338;47.426;19.204;2023-03-21T12:59:12;1.40;;;1.30;;
51266;SDS011;37338;47.426;19.204;2023-03-21T13:24:38;1.95;;;1.20;;
51266;SDS011;37338;47.426;19.204;2023-03-21T13:29:49;1.10;;;1.00;;
51266;SDS011;37338;47.426;19.204;2023-03-21T13:32:24;1.20;;;1.10;;
51266;SDS011;37338;47.426;19.204;2023-03-21T13:34:55;1.88;;;1.58;;
51266;SDS011;37338;47.426;19.204;2023-03-21T13:37:21;1.45;;;1.35;;
51266;SDS011;37338;47.426;19.204;2023-03-21T13:39:49;0.90;;;0.85;;
51266;SDS011;37338;47.426;19.204;2023-03-21T13:42:17;2.75;;;1.30;;
51266;SDS011;37338;47.426;19.204;2023-03-21T13:44:48;2.05;;;1.08;;
51266;SDS011;37338;47.426;19.204;2023-03-21T13:55:44;2.50;;;1.10;;
51266;SDS011;37338;47.426;19.204;2023-03-21T14:03:35;1.30;;;1.00;;
51266;SDS011;37338;47.426;19.204;2023-03-21T14:06:01;2.33;;;1.25;;
51266;SDS011;37338;47.426;19.204;2023-03-21T14:08:26;1.25;;;1.15;;
51266;SDS011;37338;47.426;19.204;2023-03-21T14:10:54;1.40;;;1.30;;
51266;SDS011;37338;47.426;19.204;2023-03-21T14:13:24;2.15;;;1.02;;
51266;SDS011;37338;47.426;19.204;2023-03-21T14:15:51;1.20;;;1.00;;
51266;SDS011;37338;47.426;19.204;2023-03-21T14:18:19;1.65;;;1.02;;
51266;SDS011;37338;47.426;19.204;2023-03-21T14:20:51;1.20;;;1.10;;
51266;SDS011;37338;47.426;19.204;2023-03-21T14:23:18;2.47;;;1.00;;
51266;SDS011;37338;47.426;19.204;2023-03-21T14:25:44;0.95;;;0.95;;
51266;SDS011;37338;47.426;19.204;2023-03-21T14:28:29;1.10;;;1.05;;
51266;SDS011;37338;47.426;19.204;2023-03-21T14:30:58;1.38;;;1.27;;
51266;SDS011;37338;47.426;19.204;2023-03-21T14:33:31;1.35;;;1.25;;
51266;SDS011;37338;47.426;19.204;2023-03-21T14:36:02;1.90;;;1.55;;
51266;SDS011;37338;47.426;19.204;2023-03-21T14:38:33;1.98;;;1.17;;
51266;SDS011;37338;47.426;19.204;2023-03-21T14:41:01;1.30;;;1.20;;
51266;SDS011;37338;47.426;19.204;2023-03-21T14:43:27;1.40;;;1.27;;
51266;SDS011;37338;47.426;19.204;2023-03-21T14:45:53;1.50;;;1.40;;
51266;SDS011;37338;47.426;19.204;2023-03-21T14:48:21;1.95;;;1.20;;
51266;SDS011;37338;47.426;19.204;2023-03-21T14:50:57;3.15;;;2.95;;
51266;SDS011;37338;47.426;19.204;2023-03-21T14:53:34;1.88;;;1.08;;
51266;SDS011;37338;47.426;19.204;2023-03-21T14:58:26;0.90;;;0.75;;
51266;SDS011;37338;47.426;19.204;2023-03-21T15:00:53;2.13;;;1.00;;
51266;SDS011;37338;47.426;19.204;2023-03-21T15:03:21;1.30;;;1.20;;
51266;SDS011;37338;47.426;19.204;2023-03-21T15:05:48;2.42;;;1.08;;
51266;SDS011;37338;47.426;19.204;2023-03-21T15:08:15;0.90;;;0.80;;
51266;SDS011;37338;47.426;19.204;2023-03-21T15:11:05;1.25;;;1.02;;
51266;SDS011;37338;47.426;19.204;2023-03-21T15:13:30;0.93;;;0.93;;
51266;SDS011;37338;47.426;19.204;2023-03-21T15:15:57;1.10;;;1.10;;
51266;SDS011;37338;47.426;19.204;2023-03-21T15:18:30;1.58;;;1.40;;
51266;SDS011;37338;47.426;19.204;2023-03-21T15:20:57;1.42;;;1.33;;
51266;SDS011;37338;47.426;19.204;2023-03-21T15:23:29;3.45;;;1.52;;
51266;SDS011;37338;47.426;19.204;2023-03-21T15:25:56;1.60;;;1.10;;
51266;SDS011;37338;47.426;19.204;2023-03-21T15:28:23;1.13;;;1.00;;
51266;SDS011;37338;47.426;19.204;2023-03-21T15:30:50;1.80;;;1.60;;
51266;SDS011;37338;47.426;19.204;2023-03-21T15:33:16;1.90;;;1.38;;
51266;SDS011;37338;47.426;19.204;2023-03-21T15:35:43;1.40;;;1.30;;
51266;SDS011;37338;47.426;19.204;2023-03-21T15:38:32;1.33;;;1.23;;
51266;SDS011;37338;47.426;19.204;2023-03-21T15:57:25;2.67;;;1.85;;
51266;SDS011;37338;47.426;19.204;2023-03-21T16:06:22;4.18;;;2.05;;
51266;SDS011;37338;47.426;19.204;2023-03-21T16:22:52;2.08;;;1.88;;
51266;SDS011;37338;47.426;19.204;2023-03-21T16:25:17;2.35;;;2.15;;
51266;SDS011;37338;47.426;19.204;2023-03-21T16:27:44;2.00;;;1.90;;
51266;SDS011;37338;47.426;19.204;2023-03-21T16:30:13;1.85;;;1.63;;
51266;SDS011;37338;47.426;19.204;2023-03-21T16:32:40;4.82;;;1.65;;
51266;SDS011;37338;47.426;19.204;2023-03-21T16:35:05;1.73;;;1.48;;
51266;SDS011;37338;47.426;19.204;2023-03-21T16:37:31;2.45;;;1.88;;
51266;SDS011;37338;47.426;19.204;2023-03-21T16:39:57;2.33;;;2.03;;
51266;SDS011;37338;47.426;19.204;2023-03-21T16:42:22;2.38;;;2.08;;
51266;SDS011;37338;47.426;19.204;2023-03-21T16:44:47;1.92;;;1.73;;
51266;SDS011;37338;47.426;19.204;2023-03-21T16:47:22;2.20;;;2.00;;
51266;SDS011;37338;47.426;19.204;2023-03-21T16:49:48;1.60;;;1.50;;
51266;SDS011;37338;47.426;19.204;2023-03-21T16:52:13;2.30;;;1.58;;
51266;SDS011;37338;47.426;19.204;2023-03-21T16:54:39;3.27;;;1.80;;
51266;SDS011;37338;47.426;19.204;2023-03-21T16:57:06;2.90;;;2.38;;
51266;SDS011;37338;47.426;19.204;2023-03-21T16:59:35;3.87;;;2.20;;
51266;SDS011;37338;47.426;19.204;2023-03-21T17:02:08;2.50;;;2.30;;
51266;SDS011;37338;47.426;19.204;2023-03-21T17:04:35;4.43;;;2.50;;
51266;SDS011;37338;47.426;19.204;2023-03-21T17:07:01;6.97;;;2.43;;
51266;SDS011;37338;47.426;19.204;2023-03-21T17:09:27;5.68;;;2.90;;
51266;SDS011;37338;47.426;19.204;2023-03-21T17:11:53;3.80;;;3.47;;
51266;SDS011;37338;47.426;19.204;2023-03-21T17:14:18;6.53;;;3.13;;
51266;SDS011;37338;47.426;19.204;2023-03-21T17:16:45;4.47;;;3.80;;
51266;SDS011;37338;47.426;19.204;2023-03-21T17:21:57;6.07;;;4.17;;
51266;SDS011;37338;47.426;19.204;2023-03-21T17:24:31;4.30;;;3.87;;
51266;SDS011;37338;47.426;19.204;2023-03-21T17:26:58;3.57;;;3.23;;
51266;SDS011;37338;47.426;19.204;2023-03-21T17:29:24;4.83;;;3.67;;
51266;SDS011;37338;47.426;19.204;2023-03-21T17:31:50;5.20;;;4.07;;
51266;SDS011;37338;47.426;19.204;2023-03-21T17:34:25;4.40;;;4.00;;
51266;SDS011;37338;47.426;19.204;2023-03-21T17:36:51;8.43;;;3.63;;
51266;SDS011;37338;47.426;19.204;2023-03-21T17:39:23;9.90;;;4.67;;
51266;SDS011;37338;47.426;19.204;2023-03-21T17:41:50;4.13;;;3.73;;
51266;SDS011;37338;47.426;19.204;2023-03-21T17:44:17;5.50;;;3.70;;
51266;SDS011;37338;47.426;19.204;2023-03-21T17:46:42;4.53;;;3.67;;
51266;SDS011;37338;47.426;19.204;2023-03-21T17:49:09;4.30;;;3.50;;
51266;SDS011;37338;47.426;19.204;2023-03-21T18:18:14;5.13;;;3.80;;
51266;SDS011;37338;47.426;19.204;2023-03-21T18:20:43;3.50;;;2.73;;
51266;SDS011;37338;47.426;19.204;2023-03-21T18:29:43;9.77;;;3.57;;
51266;SDS011;37338;47.426;19.204;2023-03-21T18:32:09;4.47;;;3.60;;
51266;SDS011;37338;47.426;19.204;2023-03-21T18:34:38;4.50;;;3.10;;
51266;SDS011;37338;47.426;19.204;2023-03-21T18:37:04;7.20;;;3.20;;
51266;SDS011;37338;47.426;19.204;2023-03-21T18:39:31;6.87;;;3.53;;
51266;SDS011;37338;47.426;19.204;2023-03-21T18:41:57;3.90;;;2.80;;
51266;SDS011;37338;47.426;19.204;2023-03-21T18:44:25;3.67;;;2.80;;
51266;SDS011;37338;47.426;19.204;2023-03-21T18:46:53;5.30;;;3.17;;
51266;SDS011;37338;47.426;19.204;2023-03-21T18:49:18;6.60;;;3.57;;
51266;SDS011;37338;47.426;19.204;2023-03-21T18:51:44;5.60;;;3.13;;
51266;SDS011;37338;47.426;19.204;2023-03-21T18:54:11;7.60;;;3.60;;
51266;SDS011;37338;47.426;19.204;2023-03-21T18:56:36;24.23;;;10.77;;
51266;SDS011;37338;47.426;19.204;2023-03-21T18:59:02;30.43;;;13.77;;
51266;SDS011;37338;47.426;19.204;2023-03-21T19:01:29;23.17;;;11.60;;
51266;SDS011;37338;47.426;19.204;2023-03-21T19:03:54;31.80;;;17.53;;
51266;SDS011;37338;47.426;19.204;2023-03-21T19:06:24;36.87;;;17.33;;
51266;SDS011;37338;47.426;19.204;2023-03-21T19:08:52;16.60;;;10.70;;
51266;SDS011;37338;47.426;19.204;2023-03-21T19:11:17;8.30;;;5.60;;
51266;SDS011;37338;47.426;19.204;2023-03-21T19:13:45;8.50;;;4.63;;
51266;SDS011;37338;47.426;19.204;2023-03-21T19:16:11;6.03;;;4.03;;
51266;SDS011;37338;47.426;19.204;2023-03-21T19:18:37;6.43;;;4.40;;
51266;SDS011;37338;47.426;19.204;2023-03-21T19:21:02;4.97;;;3.93;;
51266;SDS011;37338;47.426;19.204;2023-03-21T19:23:29;11.03;;;4.23;;
51266;SDS011;37338;47.426;19.204;2023-03-21T19:25:54;5.37;;;3.77;;
51266;SDS011;37338;47.426;19.204;2023-03-21T19:28:20;6.13;;;4.20;;
51266;SDS011;37338;47.426;19.204;2023-03-21T19:30:45;6.50;;;4.20;;